Terminal Aerodrome Forecast
Issued by NWS

Current Version | Previous Version | Text Only | Print | Product List | Glossary Off
Versions: 1 2 3 4 5 6 7 8 9 10 11 12 13 14 15 16 17 18

000
FTUS42 KILM 181011 AAB
TAFCRE
TAF AMD
KCRE 181011Z 1810/1906 36006KT P6SM SCT007 SCT090
      TEMPO 1811/1813 BKN007
     FM181400 01010G16KT P6SM SCT035 SCT100
     FM182200 35008KT P6SM FEW100=

USA.gov is the U.S. government's official web portal to all federal, state and local government web resources and services.